Time,TemperatureF,DewpointF,PressureIn,WindDirection,WindDirectionDegrees,WindSpeedMPH,WindSpeedGustMPH,Humidity,HourlyPrecipIn,Conditions,Clouds,dailyrainin,SoftwareType,DateUTC
2013-03-26 00:02:00,15.0,-2.0,30.58,North,360,1.0,1.0,46,0.00,,---,0.00,VWS V14.01,2013-03-26 06:02:00,
2013-03-26 00:07:00,14.9,-2.6,30.58,North,360,0.0,1.0,45,0.00,,---,0.00,VWS V14.01,2013-03-26 06:07:00,
2013-03-26 00:12:00,15.2,-2.3,30.57,North,360,0.0,1.0,45,0.00,,---,0.00,VWS V14.01,2013-03-26 06:12:00,
2013-03-26 00:17:00,15.2,-2.3,30.57,North,360,1.0,1.0,45,0.00,,---,0.00,VWS V14.01,2013-03-26 06:17:00,
2013-03-26 00:22:00,15.0,-2.5,30.57,North,360,0.0,2.0,45,0.00,,---,0.00,VWS V14.01,2013-03-26 06:22:00,
2013-03-26 00:27:00,14.9,-2.1,30.57,North,360,0.0,1.0,46,0.00,,---,0.00,VWS V14.01,2013-03-26 06:27:00,
2013-03-26 00:32:00,14.7,-2.3,30.57,North,360,1.0,1.0,46,0.00,,---,0.00,VWS V14.01,2013-03-26 06:32:00,
2013-03-26 00:37:00,14.6,-2.4,30.56,North,360,1.0,2.0,46,0.00,,---,0.00,VWS V14.01,2013-03-26 06:37:00,
2013-03-26 00:42:00,14.5,-2.5,30.56,North,360,1.0,2.0,46,0.00,,---,0.00,VWS V14.01,2013-03-26 06:42:00,
2013-03-26 00:47:00,14.6,-2.4,30.56,North,360,0.0,0.0,46,0.00,,---,0.00,VWS V14.01,2013-03-26 06:47:00,
2013-03-26 00:52:00,14.6,-2.0,30.56,North,360,2.0,2.0,47,0.00,,---,0.00,VWS V14.01,2013-03-26 06:52:00,
2013-03-26 00:57:00,14.5,-2.0,30.56,North,360,0.0,1.0,47,0.00,,---,0.00,VWS V14.01,2013-03-26 06:57:00,
2013-03-26 01:02:00,14.8,-2.7,30.56,North,360,0.0,1.0,45,0.00,,---,0.00,VWS V14.01,2013-03-26 07:02:00,
2013-03-26 01:07:00,15.1,-1.5,30.55,North,11,0.0,4.0,47,0.00,,---,0.00,VWS V14.01,2013-03-26 07:07:00,
2013-03-26 01:12:00,15.1,-2.0,30.56,North,11,1.0,1.0,46,0.00,,---,0.00,VWS V14.01,2013-03-26 07:12:00,
2013-03-26 01:17:00,15.1,-1.5,30.55,North,10,1.0,3.0,47,0.00,,---,0.00,VWS V14.01,2013-03-26 07:17:00,
2013-03-26 01:23:00,15.2,-2.8,30.55,North,10,1.0,1.0,44,0.00,,---,0.00,VWS V14.01,2013-03-26 07:23:00,
2013-03-26 01:28:00,15.4,-2.1,30.55,North,10,4.0,4.0,45,0.00,,---,0.00,VWS V14.01,2013-03-26 07:28:00,
2013-03-26 01:33:00,15.5,-2.0,30.55,North,10,0.0,1.0,45,0.00,,---,0.00,VWS V14.01,2013-03-26 07:33:00,
2013-03-26 01:38:00,15.8,-2.7,30.55,North,10,1.0,1.0,43,0.00,,---,0.00,VWS V14.01,2013-03-26 07:38:00,
2013-03-26 01:43:00,16.1,-2.0,30.55,North,5,2.0,4.0,44,0.00,,---,0.00,VWS V14.01,2013-03-26 07:43:00,
2013-03-26 01:48:00,16.2,-2.4,30.55,North,5,2.0,2.0,43,0.00,,---,0.00,VWS V14.01,2013-03-26 07:48:00,
2013-03-26 01:53:00,16.4,-2.2,30.55,North,5,1.0,2.0,43,0.00,,---,0.00,VWS V14.01,2013-03-26 07:53:00,
2013-03-26 01:58:00,16.6,-2.0,30.55,NW,304,4.0,6.0,43,0.00,,---,0.00,VWS V14.01,2013-03-26 07:58:00,
2013-03-26 02:03:00,16.6,-1.5,30.54,NW,319,7.0,7.0,44,0.00,,---,0.00,VWS V14.01,2013-03-26 08:03:00,
2013-03-26 02:08:00,16.5,-0.7,30.53,NW,320,0.0,2.0,46,0.00,,---,0.00,VWS V14.01,2013-03-26 08:08:00,
2013-03-26 02:13:00,16.3,-1.3,30.53,NW,318,4.0,6.0,45,0.00,,---,0.00,VWS V14.01,2013-03-26 08:13:00,
2013-03-26 02:18:00,16.5,-1.6,30.53,NW,326,1.0,2.0,44,0.00,,---,0.00,VWS V14.01,2013-03-26 08:18:00,
2013-03-26 02:23:00,16.6,-1.5,30.53,NNW,338,2.0,2.0,44,0.00,,---,0.00,VWS V14.01,2013-03-26 08:23:00,
2013-03-26 02:28:00,17.1,-0.1,30.52,WNW,284,6.0,7.0,46,0.00,,---,0.00,VWS V14.01,2013-03-26 08:28:00,
2013-03-26 02:33:00,17.4,-0.8,30.51,WNW,294,2.0,2.0,44,0.00,,---,0.00,VWS V14.01,2013-03-26 08:33:00,
2013-03-26 02:38:00,17.4,-0.3,30.51,WNW,296,4.0,7.0,45,0.00,,---,0.00,VWS V14.01,2013-03-26 08:38:00,
2013-03-26 02:43:00,17.7,0.4,30.51,WNW,294,6.0,10.0,46,0.00,,---,0.00,VWS V14.01,2013-03-26 08:43:00,
2013-03-26 02:48:00,18.2,0.4,30.51,WSW,249,1.0,2.0,45,0.00,,---,0.00,VWS V14.01,2013-03-26 08:48:00,
2013-03-26 02:53:00,18.5,0.7,30.51,West,264,0.0,1.0,45,0.00,,---,0.00,VWS V14.01,2013-03-26 08:53:00,
2013-03-26 02:58:00,18.8,1.5,30.51,SW,217,1.0,7.0,46,0.00,,---,0.00,VWS V14.01,2013-03-26 08:58:00,
2013-03-26 03:03:00,19.0,2.1,30.51,SSW,204,6.0,9.0,47,0.00,,---,0.00,VWS V14.01,2013-03-26 09:03:00,
2013-03-26 03:09:00,19.0,2.6,30.51,SSW,198,14.0,14.0,48,0.00,,---,0.00,VWS V14.01,2013-03-26 09:09:00,
2013-03-26 03:14:00,19.5,3.5,30.50,South,190,7.0,7.0,49,0.00,,---,0.00,VWS V14.01,2013-03-26 09:14:00,
2013-03-26 03:19:00,19.8,3.7,30.50,SW,227,4.0,7.0,49,0.00,,---,0.00,VWS V14.01,2013-03-26 09:19:00,
2013-03-26 03:24:00,19.9,3.8,30.50,SW,234,0.0,0.0,49,0.00,,---,0.00,VWS V14.01,2013-03-26 09:24:00,
2013-03-26 03:29:00,19.8,4.2,30.50,SW,232,0.0,1.0,50,0.00,,---,0.00,VWS V14.01,2013-03-26 09:29:00,
2013-03-26 03:34:00,19.7,4.1,30.50,SW,232,0.0,0.0,50,0.00,,---,0.00,VWS V14.01,2013-03-26 09:34:00,
2013-03-26 03:39:00,19.4,3.8,30.49,SW,232,1.0,2.0,50,0.00,,---,0.00,VWS V14.01,2013-03-26 09:39:00,
2013-03-26 03:44:00,19.3,4.1,30.49,SW,234,4.0,6.0,51,0.00,,---,0.00,VWS V14.01,2013-03-26 09:44:00,
2013-03-26 03:49:00,19.2,4.1,30.49,SW,234,2.0,3.0,51,0.00,,---,0.00,VWS V14.01,2013-03-26 09:49:00,
2013-03-26 03:54:00,19.1,4.0,30.49,West,273,1.0,1.0,51,0.00,,---,0.00,VWS V14.01,2013-03-26 09:54:00,
2013-03-26 03:59:00,19.0,3.9,30.48,West,273,0.0,0.0,51,0.00,,---,0.00,VWS V14.01,2013-03-26 09:59:00,
2013-03-26 04:04:00,19.1,4.0,30.48,West,273,0.0,0.0,51,0.00,,---,0.00,VWS V14.01,2013-03-26 10:04:00,
2013-03-26 04:09:00,18.9,4.2,30.48,West,273,2.0,2.0,52,0.00,,---,0.00,VWS V14.01,2013-03-26 10:09:00,
2013-03-26 04:14:00,18.9,4.6,30.47,SW,223,0.0,2.0,53,0.00,,---,0.00,VWS V14.01,2013-03-26 10:14:00,
2013-03-26 04:19:00,19.1,4.4,30.47,West,274,6.0,6.0,52,0.00,,---,0.00,VWS V14.01,2013-03-26 10:19:00,
2013-03-26 04:24:00,19.1,4.8,30.47,West,274,3.0,5.0,53,0.00,,---,0.00,VWS V14.01,2013-03-26 10:24:00,
2013-03-26 04:29:00,19.0,5.1,30.47,NW,305,7.0,7.0,54,0.00,,---,0.00,VWS V14.01,2013-03-26 10:29:00,
2013-03-26 04:34:00,19.3,5.8,30.46,SW,227,5.0,12.0,55,0.00,,---,0.00,VWS V14.01,2013-03-26 10:34:00,
2013-03-26 04:39:00,19.7,6.2,30.46,SW,223,5.0,11.0,55,0.00,,---,0.00,VWS V14.01,2013-03-26 10:39:00,
2013-03-26 04:45:00,19.7,6.2,30.46,South,189,4.0,4.0,55,0.00,,---,0.00,VWS V14.01,2013-03-26 10:45:00,
2013-03-26 04:50:00,19.5,6.0,30.46,SSE,157,4.0,5.0,55,0.00,,---,0.00,VWS V14.01,2013-03-26 10:50:00,
2013-03-26 04:55:00,19.4,5.5,30.46,SSE,165,2.0,7.0,54,0.00,,---,0.00,VWS V14.01,2013-03-26 10:55:00,
2013-03-26 05:00:00,19.3,5.8,30.46,SSE,165,2.0,2.0,55,0.00,,---,0.00,VWS V14.01,2013-03-26 11:00:00,
2013-03-26 05:05:00,19.2,5.7,30.46,SSE,165,0.0,0.0,55,0.00,,---,0.00,VWS V14.01,2013-03-26 11:05:00,
2013-03-26 05:10:00,19.1,5.6,30.46,SSE,155,2.0,5.0,55,0.00,,---,0.00,VWS V14.01,2013-03-26 11:10:00,
2013-03-26 05:15:00,19.0,5.5,30.46,SSE,158,1.0,4.0,55,0.00,,---,0.00,VWS V14.01,2013-03-26 11:15:00,
2013-03-26 05:20:00,18.9,5.8,30.45,East,94,0.0,2.0,56,0.00,,---,0.00,VWS V14.01,2013-03-26 11:20:00,
2013-03-26 05:25:00,18.8,5.3,30.45,East,94,0.0,0.0,55,0.00,,---,0.00,VWS V14.01,2013-03-26 11:25:00,
2013-03-26 05:30:00,18.8,5.7,30.45,SSW,197,0.0,0.0,56,0.00,,---,0.00,VWS V14.01,2013-03-26 11:30:00,
2013-03-26 05:35:00,18.9,5.8,30.45,SSW,197,0.0,0.0,56,0.00,,---,0.00,VWS V14.01,2013-03-26 11:35:00,
2013-03-26 05:40:00,19.0,5.9,30.45,SSW,197,1.0,2.0,56,0.00,,---,0.00,VWS V14.01,2013-03-26 11:40:00,
2013-03-26 05:45:00,19.1,6.0,30.44,SSW,197,4.0,4.0,56,0.00,,---,0.00,VWS V14.01,2013-03-26 11:45:00,
2013-03-26 05:50:00,18.9,5.8,30.45,West,259,5.0,5.0,56,0.00,,---,0.00,VWS V14.01,2013-03-26 11:50:00,
2013-03-26 05:55:00,19.3,6.2,30.45,West,259,4.0,6.0,56,0.00,,---,0.00,VWS V14.01,2013-03-26 11:55:00,
2013-03-26 06:00:00,19.5,6.0,30.44,WSW,257,3.0,4.0,55,0.00,,---,0.00,VWS V14.01,2013-03-26 12:00:00,
2013-03-26 06:05:00,19.6,6.1,30.44,WSW,239,0.0,4.0,55,0.00,,---,0.00,VWS V14.01,2013-03-26 12:05:00,
2013-03-26 06:10:00,19.4,5.9,30.44,WNW,296,11.0,11.0,55,0.00,,---,0.00,VWS V14.01,2013-03-26 12:10:00,
2013-03-26 06:15:00,19.4,6.3,30.44,WNW,302,4.0,5.0,56,0.00,,---,0.00,VWS V14.01,2013-03-26 12:15:00,
2013-03-26 06:20:00,19.5,6.8,30.43,WNW,295,2.0,2.0,57,0.00,,---,0.00,VWS V14.01,2013-03-26 12:20:00,
2013-03-26 06:25:00,19.3,6.2,30.43,WNW,295,0.0,0.0,56,0.00,,---,0.00,VWS V14.01,2013-03-26 12:25:00,
2013-03-26 06:30:00,19.3,6.9,30.42,ENE,76,5.0,7.0,58,0.00,,---,0.00,VWS V14.01,2013-03-26 12:30:00,
2013-03-26 06:36:00,19.1,6.8,30.44,NE,40,0.0,0.0,58,0.00,,---,0.00,VWS V14.01,2013-03-26 12:36:00,
2013-03-26 06:41:00,19.3,6.9,30.43,North,360,5.0,5.0,58,0.00,,---,0.00,VWS V14.01,2013-03-26 12:41:00,
2013-03-26 06:46:00,19.8,7.0,30.46,West,278,4.0,5.0,57,0.00,,---,0.00,VWS V14.01,2013-03-26 12:46:00,
2013-03-26 06:51:00,20.1,7.3,30.43,NE,42,2.0,5.0,57,0.00,,---,0.00,VWS V14.01,2013-03-26 12:51:00,
2013-03-26 06:56:00,20.1,7.7,30.44,NNE,12,7.0,12.0,58,0.00,,---,0.00,VWS V14.01,2013-03-26 12:56:00,
2013-03-26 07:02:00,21.3,8.4,30.43,ESE,111,0.0,2.0,57,0.00,,---,0.00,VWS V14.01,2013-03-26 13:02:00,
2013-03-26 07:07:00,21.6,8.3,30.43,SW,225,0.0,0.0,56,0.00,,---,0.00,VWS V14.01,2013-03-26 13:07:00,
2013-03-26 07:12:00,21.6,7.9,30.43,SSW,194,5.0,5.0,55,0.00,,---,0.00,VWS V14.01,2013-03-26 13:12:00,
2013-03-26 07:17:00,21.2,8.4,30.44,WSW,252,0.0,7.0,57,0.00,,---,0.00,VWS V14.01,2013-03-26 13:17:00,
2013-03-26 07:22:00,22.6,10.4,30.44,SW,232,6.0,12.0,59,0.00,,---,0.00,VWS V14.01,2013-03-26 13:22:00,
2013-03-26 07:27:00,23.1,9.4,30.43,SSW,196,9.0,9.0,55,0.00,,---,0.00,VWS V14.01,2013-03-26 13:27:00,
2013-03-26 07:32:00,22.8,9.1,30.42,WSW,258,7.0,7.0,55,0.00,,---,0.00,VWS V14.01,2013-03-26 13:32:00,
2013-03-26 07:37:00,23.0,9.7,30.42,SW,232,5.0,9.0,56,0.00,,---,0.00,VWS V14.01,2013-03-26 13:37:00,
2013-03-26 07:42:00,23.4,9.6,30.42,West,276,6.0,6.0,55,0.00,,---,0.00,VWS V14.01,2013-03-26 13:42:00,
2013-03-26 07:47:00,23.2,9.8,30.42,WNW,293,6.0,9.0,56,0.00,,---,0.00,VWS V14.01,2013-03-26 13:47:00,
2013-03-26 07:52:00,23.1,9.8,30.43,WSW,255,0.0,2.0,56,0.00,,---,0.00,VWS V14.01,2013-03-26 13:52:00,
2013-03-26 07:57:00,23.1,10.1,30.42,WSW,255,0.0,0.0,57,0.00,,---,0.00,VWS V14.01,2013-03-26 13:57:00,
2013-03-26 08:02:00,23.0,9.7,30.42,West,264,0.0,0.0,56,0.00,,---,0.00,VWS V14.01,2013-03-26 14:02:00,
2013-03-26 08:07:00,23.1,10.1,30.42,WSW,243,0.0,0.0,57,0.00,,---,0.00,VWS V14.01,2013-03-26 14:07:00,
2013-03-26 08:12:00,23.3,10.3,30.43,WNW,290,0.0,3.0,57,0.00,,---,0.00,VWS V14.01,2013-03-26 14:12:00,
2013-03-26 08:17:00,23.8,10.8,30.42,WNW,286,6.0,8.0,57,0.00,,---,0.00,VWS V14.01,2013-03-26 14:17:00,
2013-03-26 08:22:00,24.3,11.3,30.42,WNW,296,1.0,5.0,57,0.00,,---,0.00,VWS V14.01,2013-03-26 14:22:00,
2013-03-26 08:27:00,25.4,11.9,30.42,WNW,289,6.0,6.0,56,0.00,,---,0.00,VWS V14.01,2013-03-26 14:27:00,
2013-03-26 08:33:00,26.7,12.7,30.41,WNW,292,5.0,7.0,55,0.00,,---,0.00,VWS V14.01,2013-03-26 14:33:00,
2013-03-26 08:38:00,28.0,13.5,30.41,NW,319,9.0,9.0,54,0.00,,---,0.00,VWS V14.01,2013-03-26 14:38:00,
2013-03-26 08:43:00,28.9,13.9,30.41,West,271,1.0,8.0,53,0.00,,---,0.00,VWS V14.01,2013-03-26 14:43:00,
2013-03-26 08:48:00,29.6,14.1,30.41,West,261,4.0,7.0,52,0.00,,---,0.00,VWS V14.01,2013-03-26 14:48:00,
2013-03-26 08:53:00,30.0,14.1,30.40,WNW,288,9.0,9.0,51,0.00,,---,0.00,VWS V14.01,2013-03-26 14:53:00,
2013-03-26 08:58:00,30.2,14.3,30.40,NW,308,5.0,5.0,51,0.00,,---,0.00,VWS V14.01,2013-03-26 14:58:00,
2013-03-26 09:03:00,30.4,14.0,30.40,NNW,330,5.0,19.0,50,0.00,,---,0.00,VWS V14.01,2013-03-26 15:03:00,
2013-03-26 09:08:00,30.4,14.0,30.39,NW,317,4.0,14.0,50,0.00,,---,0.00,VWS V14.01,2013-03-26 15:08:00,
2013-03-26 09:13:00,30.5,14.5,30.38,NNE,29,1.0,6.0,51,0.00,,---,0.00,VWS V14.01,2013-03-26 15:13:00,
2013-03-26 09:18:00,30.7,14.3,30.39,West,270,6.0,7.0,50,0.00,,---,0.00,VWS V14.01,2013-03-26 15:18:00,
2013-03-26 09:23:00,30.9,14.5,30.39,West,273,12.0,14.0,50,0.00,,---,0.00,VWS V14.01,2013-03-26 15:23:00,
2013-03-26 09:27:00,31.2,14.3,30.40,West,281,7.0,10.0,49,0.00,,---,0.00,VWS V14.01,2013-03-26 15:27:00,
2013-03-26 09:33:00,31.7,14.7,30.39,NW,317,1.0,4.0,49,0.00,,---,0.00,VWS V14.01,2013-03-26 15:33:00,
2013-03-26 09:38:00,32.1,14.6,30.40,South,177,7.0,9.0,48,0.00,,---,0.00,VWS V14.01,2013-03-26 15:38:00,
2013-03-26 09:43:00,32.5,15.9,30.40,SSW,207,7.0,7.0,50,0.00,,---,0.00,VWS V14.01,2013-03-26 15:43:00,
2013-03-26 09:48:00,32.8,14.8,30.39,West,264,6.0,8.0,47,0.00,,---,0.00,VWS V14.01,2013-03-26 15:48:00,
2013-03-26 09:52:00,33.1,14.6,30.39,WNW,285,1.0,1.0,46,0.00,,---,0.00,VWS V14.01,2013-03-26 15:52:00,
2013-03-26 09:58:00,33.4,14.9,30.39,WNW,283,6.0,10.0,46,0.00,,---,0.00,VWS V14.01,2013-03-26 15:58:00,
2013-03-26 10:03:00,33.9,15.3,30.38,North,5,5.0,5.0,46,0.00,,---,0.00,VWS V14.01,2013-03-26 16:03:00,
2013-03-26 10:08:00,34.9,15.7,30.38,SE,132,2.0,3.0,45,0.00,,---,0.00,VWS V14.01,2013-03-26 16:08:00,
2013-03-26 10:13:00,35.6,15.3,30.38,West,267,1.0,4.0,43,0.00,,---,0.00,VWS V14.01,2013-03-26 16:13:00,
2013-03-26 10:18:00,36.1,15.2,30.38,WSW,255,1.0,1.0,42,0.00,,---,0.00,VWS V14.01,2013-03-26 16:18:00,
2013-03-26 10:23:00,37.5,16.0,30.37,South,186,6.0,6.0,41,0.01,,---,0.01,VWS V14.01,2013-03-26 16:23:00,
2013-03-26 10:28:00,38.8,16.0,30.38,South,180,0.0,2.0,39,0.01,,---,0.01,VWS V14.01,2013-03-26 16:28:00,
2013-03-26 10:32:00,39.3,16.4,30.37,SW,217,2.0,8.0,39,0.01,,---,0.01,VWS V14.01,2013-03-26 16:32:00,
2013-03-26 10:38:00,39.6,15.5,30.38,SSW,205,12.0,16.0,37,0.01,,---,0.01,VWS V14.01,2013-03-26 16:38:00,
2013-03-26 10:43:00,39.7,16.2,30.37,West,267,4.0,9.0,38,0.02,,---,0.02,VWS V14.01,2013-03-26 16:43:00,
2013-03-26 10:48:00,39.8,16.3,30.37,SSW,196,5.0,7.0,38,0.02,,---,0.02,VWS V14.01,2013-03-26 16:48:00,
2013-03-26 10:53:00,40.3,17.3,30.37,WSW,258,3.0,7.0,39,0.02,,---,0.02,VWS V14.01,2013-03-26 16:53:00,
2013-03-26 10:58:00,40.1,16.5,30.37,West,260,7.0,13.0,38,0.02,,---,0.02,VWS V14.01,2013-03-26 16:58:00,
2013-03-26 11:03:00,40.4,16.8,30.36,NW,308,6.0,10.0,38,0.03,,---,0.03,VWS V14.01,2013-03-26 17:03:00,
2013-03-26 11:08:00,40.5,16.9,30.36,SW,221,13.0,16.0,38,0.03,,---,0.03,VWS V14.01,2013-03-26 17:08:00,
2013-03-26 11:13:00,40.3,16.1,30.36,WSW,248,10.0,14.0,37,0.03,,---,0.03,VWS V14.01,2013-03-26 17:13:00,
2013-03-26 11:18:00,40.2,16.0,30.36,WSW,246,5.0,12.0,37,0.03,,---,0.03,VWS V14.01,2013-03-26 17:18:00,
2013-03-26 11:23:00,40.2,16.0,30.35,NNW,344,0.0,11.0,37,0.02,,---,0.03,VWS V14.01,2013-03-26 17:23:00,
2013-03-26 11:28:00,40.6,17.0,30.35,West,281,7.0,9.0,38,0.02,,---,0.03,VWS V14.01,2013-03-26 17:28:00,
2013-03-26 11:33:00,41.0,16.7,30.34,WNW,284,4.0,13.0,37,0.02,,---,0.03,VWS V14.01,2013-03-26 17:33:00,
2013-03-26 11:38:00,41.2,16.9,30.34,WSW,254,12.0,12.0,37,0.02,,---,0.03,VWS V14.01,2013-03-26 17:38:00,
2013-03-26 11:43:00,41.4,17.7,30.34,SSW,205,3.0,6.0,38,0.01,,---,0.03,VWS V14.01,2013-03-26 17:43:00,
2013-03-26 11:48:00,41.4,16.5,30.34,WSW,238,8.0,12.0,36,0.01,,---,0.03,VWS V14.01,2013-03-26 17:48:00,
2013-03-26 11:53:00,41.2,17.5,30.33,WSW,245,2.0,7.0,38,0.01,,---,0.03,VWS V14.01,2013-03-26 17:53:00,
2013-03-26 11:58:00,41.0,17.4,30.33,SW,232,8.0,11.0,38,0.01,,---,0.03,VWS V14.01,2013-03-26 17:58:00,
2013-03-26 12:03:00,40.8,18.9,30.33,WSW,257,5.0,10.0,41,0.00,,---,0.03,VWS V14.01,2013-03-26 18:03:00,
2013-03-26 12:08:00,40.6,17.6,30.32,SSW,208,8.0,10.0,39,0.00,,---,0.03,VWS V14.01,2013-03-26 18:08:00,
2013-03-26 12:12:00,40.5,18.7,30.32,SW,229,10.0,10.0,41,0.00,,---,0.03,VWS V14.01,2013-03-26 18:12:00,
2013-03-26 12:17:00,40.1,17.7,30.32,WSW,244,12.0,13.0,40,0.00,,---,0.03,VWS V14.01,2013-03-26 18:17:00,
2013-03-26 12:22:00,39.8,18.0,30.31,SSW,213,4.0,12.0,41,0.00,,---,0.03,VWS V14.01,2013-03-26 18:22:00,
2013-03-26 12:28:00,39.6,18.4,30.31,SSE,154,6.0,7.0,42,0.00,,---,0.03,VWS V14.01,2013-03-26 18:28:00,
2013-03-26 12:33:00,39.5,17.8,30.30,West,259,4.0,7.0,41,0.00,,---,0.03,VWS V14.01,2013-03-26 18:33:00,
2013-03-26 12:38:00,39.8,18.0,30.30,NNW,337,2.0,5.0,41,0.00,,---,0.03,VWS V14.01,2013-03-26 18:38:00,
2013-03-26 12:43:00,41.0,19.7,30.30,South,190,16.0,16.0,42,0.00,,---,0.03,VWS V14.01,2013-03-26 18:43:00,
2013-03-26 12:48:00,41.7,19.8,30.30,SW,218,9.0,9.0,41,0.00,,---,0.03,VWS V14.01,2013-03-26 18:48:00,
2013-03-26 12:53:00,42.6,18.8,30.30,WSW,252,14.0,18.0,38,0.00,,---,0.03,VWS V14.01,2013-03-26 18:53:00,
2013-03-26 12:58:00,42.5,17.4,30.29,WNW,299,20.0,20.0,36,0.00,,---,0.03,VWS V14.01,2013-03-26 18:58:00,
2013-03-26 13:03:00,42.3,18.5,30.30,North,5,7.0,16.0,38,0.00,,---,0.03,VWS V14.01,2013-03-26 19:03:00,
2013-03-26 13:08:00,42.5,18.7,30.29,SW,232,6.0,18.0,38,0.00,,---,0.03,VWS V14.01,2013-03-26 19:08:00,
2013-03-26 13:13:00,42.8,18.4,30.29,SW,233,20.0,20.0,37,0.00,,---,0.03,VWS V14.01,2013-03-26 19:13:00,
2013-03-26 13:18:00,42.9,18.4,30.29,WSW,238,11.0,21.0,37,0.00,,---,0.03,VWS V14.01,2013-03-26 19:18:00,
2013-03-26 13:23:00,42.3,17.9,30.29,SW,224,11.0,21.0,37,0.00,,---,0.03,VWS V14.01,2013-03-26 19:23:00,
2013-03-26 13:28:00,42.0,17.6,30.29,SW,226,9.0,9.0,37,0.00,,---,0.03,VWS V14.01,2013-03-26 19:28:00,
2013-03-26 13:33:00,42.0,17.6,30.28,WSW,252,5.0,8.0,37,0.00,,---,0.03,VWS V14.01,2013-03-26 19:33:00,
2013-03-26 13:38:00,42.1,17.1,30.28,WSW,256,6.0,7.0,36,0.00,,---,0.03,VWS V14.01,2013-03-26 19:38:00,
2013-03-26 13:43:00,42.2,17.8,30.27,SW,217,8.0,10.0,37,0.00,,---,0.03,VWS V14.01,2013-03-26 19:43:00,
2013-03-26 13:48:00,42.7,18.9,30.27,West,271,10.0,14.0,38,0.00,,---,0.03,VWS V14.01,2013-03-26 19:48:00,
2013-03-26 13:53:00,43.2,19.9,30.27,WSW,244,11.0,11.0,39,0.00,,---,0.03,VWS V14.01,2013-03-26 19:53:00,
2013-03-26 13:58:00,43.5,19.6,30.28,SW,220,5.0,20.0,38,0.00,,---,0.03,VWS V14.01,2013-03-26 19:58:00,
2013-03-26 14:03:00,43.6,19.1,30.27,SSW,194,6.0,12.0,37,0.00,,---,0.03,VWS V14.01,2013-03-26 20:03:00,
2013-03-26 14:08:00,43.4,18.9,30.27,SSW,204,13.0,21.0,37,0.00,,---,0.03,VWS V14.01,2013-03-26 20:08:00,
2013-03-26 14:13:00,42.8,18.4,30.27,SSW,212,11.0,16.0,37,0.00,,---,0.03,VWS V14.01,2013-03-26 20:13:00,
2013-03-26 14:18:00,42.2,18.4,30.26,South,189,7.0,13.0,38,0.00,,---,0.03,VWS V14.01,2013-03-26 20:18:00,
2013-03-26 14:23:00,42.1,19.0,30.26,South,175,8.0,12.0,39,0.00,,---,0.03,VWS V14.01,2013-03-26 20:23:00,
2013-03-26 14:28:00,41.8,18.1,30.26,West,281,2.0,15.0,38,0.00,,---,0.03,VWS V14.01,2013-03-26 20:28:00,
2013-03-26 14:33:00,41.7,18.0,30.26,WSW,242,12.0,16.0,38,0.00,,---,0.03,VWS V14.01,2013-03-26 20:33:00,
2013-03-26 14:39:00,41.5,17.8,30.26,SW,215,7.0,22.0,38,0.00,,---,0.03,VWS V14.01,2013-03-26 20:39:00,
2013-03-26 14:43:00,42.0,20.0,30.25,SSW,211,8.0,12.0,41,0.00,,---,0.03,VWS V14.01,2013-03-26 20:43:00,
2013-03-26 14:49:00,42.8,19.6,30.25,South,172,1.0,11.0,39,0.00,,---,0.03,VWS V14.01,2013-03-26 20:49:00,
2013-03-26 14:54:00,43.4,18.9,30.25,South,186,4.0,18.0,37,0.00,,---,0.03,VWS V14.01,2013-03-26 20:54:00,
2013-03-26 14:59:00,43.2,18.1,30.25,South,187,10.0,12.0,36,0.00,,---,0.03,VWS V14.01,2013-03-26 20:59:00,
2013-03-26 15:04:00,43.1,18.0,30.24,SSW,207,19.0,19.0,36,0.00,,---,0.03,VWS V14.01,2013-03-26 21:04:00,
2013-03-26 15:09:00,42.7,17.6,30.24,SSW,204,21.0,27.0,36,0.00,,---,0.03,VWS V14.01,2013-03-26 21:09:00,
2013-03-26 15:13:00,41.6,16.0,30.24,SW,217,22.0,25.0,35,0.00,,---,0.03,VWS V14.01,2013-03-26 21:13:00,
2013-03-26 15:19:00,40.4,16.2,30.24,SW,219,13.0,22.0,37,0.00,,---,0.03,VWS V14.01,2013-03-26 21:19:00,
2013-03-26 15:24:00,40.0,16.5,30.24,SSE,150,16.0,21.0,38,0.00,,---,0.03,VWS V14.01,2013-03-26 21:24:00,
2013-03-26 15:29:00,40.0,16.5,30.24,SW,236,15.0,21.0,38,0.00,,---,0.03,VWS V14.01,2013-03-26 21:29:00,
2013-03-26 15:34:00,40.0,15.2,30.23,SW,220,10.0,28.0,36,0.00,,---,0.03,VWS V14.01,2013-03-26 21:34:00,
2013-03-26 15:39:00,40.8,16.6,30.23,WSW,240,11.0,18.0,37,0.00,,---,0.03,VWS V14.01,2013-03-26 21:39:00,
2013-03-26 15:44:00,41.6,16.6,30.23,SSW,200,10.0,11.0,36,0.00,,---,0.03,VWS V14.01,2013-03-26 21:44:00,
2013-03-26 15:49:00,42.6,16.2,30.22,WSW,251,9.0,18.0,34,0.00,,---,0.03,VWS V14.01,2013-03-26 21:49:00,
2013-03-26 15:54:00,42.7,14.9,30.22,SSW,213,10.0,15.0,32,0.00,,---,0.03,VWS V14.01,2013-03-26 21:54:00,
2013-03-26 15:59:00,43.2,15.4,30.22,SSW,201,22.0,22.0,32,0.00,,---,0.03,VWS V14.01,2013-03-26 21:59:00,
2013-03-26 16:04:00,43.0,15.2,30.22,WSW,242,13.0,21.0,32,0.00,,---,0.03,VWS V14.01,2013-03-26 22:04:00,
2013-03-26 16:09:00,42.8,13.5,30.22,SSW,204,15.0,24.0,30,0.00,,---,0.03,VWS V14.01,2013-03-26 22:09:00,
2013-03-26 16:14:00,43.3,16.8,30.22,SSW,197,12.0,12.0,34,0.00,,---,0.03,VWS V14.01,2013-03-26 22:14:00,
2013-03-26 16:19:00,43.7,15.8,30.22,South,183,12.0,14.0,32,0.00,,---,0.03,VWS V14.01,2013-03-26 22:19:00,
2013-03-26 16:24:00,43.3,15.4,30.22,SSW,212,9.0,14.0,32,0.00,,---,0.03,VWS V14.01,2013-03-26 22:24:00,
2013-03-26 16:29:00,43.3,14.7,30.22,SSW,197,12.0,12.0,31,0.00,,---,0.03,VWS V14.01,2013-03-26 22:29:00,
2013-03-26 16:34:00,43.5,16.3,30.21,SE,135,8.0,11.0,33,0.00,,---,0.03,VWS V14.01,2013-03-26 22:34:00,
2013-03-26 16:39:00,43.5,16.3,30.21,South,191,12.0,14.0,33,0.00,,---,0.03,VWS V14.01,2013-03-26 22:39:00,
2013-03-26 16:44:00,43.5,16.3,30.21,South,180,12.0,12.0,33,0.00,,---,0.03,VWS V14.01,2013-03-26 22:44:00,
2013-03-26 16:49:00,43.1,16.0,30.21,SSW,202,16.0,16.0,33,0.00,,---,0.03,VWS V14.01,2013-03-26 22:49:00,
2013-03-26 16:54:00,42.5,15.4,30.21,SE,146,13.0,20.0,33,0.00,,---,0.03,VWS V14.01,2013-03-26 22:54:00,
2013-03-26 16:59:00,41.9,14.2,30.21,SSW,201,15.0,21.0,32,0.00,,---,0.03,VWS V14.01,2013-03-26 22:59:00,
2013-03-26 17:04:00,41.6,16.0,30.21,SSW,208,7.0,7.0,35,0.00,,---,0.03,VWS V14.01,2013-03-26 23:04:00,
2013-03-26 17:09:00,41.6,16.0,30.21,South,190,11.0,15.0,35,0.00,,---,0.03,VWS V14.01,2013-03-26 23:09:00,
2013-03-26 17:14:00,41.7,16.1,30.21,SSW,213,14.0,14.0,35,0.00,,---,0.03,VWS V14.01,2013-03-26 23:14:00,
2013-03-26 17:19:00,41.8,17.5,30.21,SSW,210,12.0,14.0,37,0.00,,---,0.03,VWS V14.01,2013-03-26 23:19:00,
2013-03-26 17:24:00,41.9,16.9,30.20,SSE,149,7.0,9.0,36,0.00,,---,0.03,VWS V14.01,2013-03-26 23:24:00,
2013-03-26 17:29:00,41.6,16.6,30.21,SSW,195,8.0,15.0,36,0.00,,---,0.03,VWS V14.01,2013-03-26 23:29:00,
2013-03-26 17:35:00,41.0,16.7,30.21,South,174,5.0,9.0,37,0.00,,---,0.03,VWS V14.01,2013-03-26 23:35:00,
2013-03-26 17:40:00,41.0,16.1,30.21,SSW,194,6.0,9.0,36,0.00,,---,0.03,VWS V14.01,2013-03-26 23:40:00,
2013-03-26 17:45:00,41.1,19.2,30.21,SSE,152,2.0,5.0,41,0.00,,---,0.03,VWS V14.01,2013-03-26 23:45:00,
2013-03-26 17:50:00,41.1,15.6,30.21,SSW,199,1.0,1.0,35,0.00,,---,0.03,VWS V14.01,2013-03-26 23:50:00,
2013-03-26 17:55:00,41.1,16.2,30.21,SSE,153,2.0,2.0,36,0.00,,---,0.03,VWS V14.01,2013-03-26 23:55:00,
2013-03-26 18:00:00,41.1,16.8,30.21,SSW,208,9.0,9.0,37,0.00,,---,0.03,VWS V14.01,2013-03-27 00:00:00,
2013-03-26 18:05:00,41.1,15.6,30.22,SW,223,8.0,8.0,35,0.00,,---,0.03,VWS V14.01,2013-03-27 00:05:00,
2013-03-26 18:10:00,40.5,14.4,30.21,West,263,11.0,12.0,34,0.00,,---,0.03,VWS V14.01,2013-03-27 00:10:00,
2013-03-26 18:15:00,39.5,14.8,30.22,SW,214,9.0,14.0,36,0.00,,---,0.03,VWS V14.01,2013-03-27 00:15:00,
2013-03-26 18:20:00,38.8,14.8,30.22,WSW,240,8.0,15.0,37,0.00,,---,0.03,VWS V14.01,2013-03-27 00:20:00,
2013-03-26 18:25:00,38.2,15.4,30.22,West,263,6.0,9.0,39,0.00,,---,0.03,VWS V14.01,2013-03-27 00:25:00,
2013-03-26 18:30:00,37.7,16.1,30.22,West,272,6.0,11.0,41,0.00,,---,0.03,VWS V14.01,2013-03-27 00:30:00,
2013-03-26 18:35:00,37.4,15.9,30.22,West,281,5.0,15.0,41,0.00,,---,0.03,VWS V14.01,2013-03-27 00:35:00,
2013-03-26 18:40:00,37.1,16.7,30.23,SSW,197,7.0,11.0,43,0.00,,---,0.03,VWS V14.01,2013-03-27 00:40:00,
2013-03-26 18:45:00,36.9,16.5,30.23,South,191,3.0,8.0,43,0.00,,---,0.03,VWS V14.01,2013-03-27 00:45:00,
2013-03-26 18:50:00,36.6,18.3,30.23,South,190,3.0,8.0,47,0.00,,---,0.03,VWS V14.01,2013-03-27 00:50:00,
2013-03-26 18:55:00,36.2,18.9,30.23,SW,234,1.0,5.0,49,0.00,,---,0.03,VWS V14.01,2013-03-27 00:55:00,
2013-03-26 19:00:00,35.7,18.9,30.22,SSW,196,4.0,7.0,50,0.00,,---,0.03,VWS V14.01,2013-03-27 01:00:00,
2013-03-26 19:05:00,35.3,19.5,30.22,SSW,209,4.0,6.0,52,0.00,,---,0.03,VWS V14.01,2013-03-27 01:05:00,
2013-03-26 19:10:00,34.9,19.5,30.21,South,181,0.0,5.0,53,0.00,,---,0.03,VWS V14.01,2013-03-27 01:10:00,
2013-03-26 19:15:00,34.5,20.0,30.21,South,180,5.0,7.0,55,0.00,,---,0.03,VWS V14.01,2013-03-27 01:15:00,
2013-03-26 19:20:00,34.1,19.2,30.21,South,180,4.0,5.0,54,0.00,,---,0.03,VWS V14.01,2013-03-27 01:20:00,
2013-03-26 19:25:00,33.7,19.7,30.21,SSW,210,2.0,2.0,56,0.00,,---,0.03,VWS V14.01,2013-03-27 01:25:00,
2013-03-26 19:30:00,33.5,19.5,30.21,SSW,210,4.0,5.0,56,0.00,,---,0.03,VWS V14.01,2013-03-27 01:30:00,
2013-03-26 19:35:00,33.4,19.0,30.21,SSW,210,1.0,6.0,55,0.00,,---,0.03,VWS V14.01,2013-03-27 01:35:00,
2013-03-26 19:40:00,33.3,19.3,30.21,SSW,210,3.0,5.0,56,0.00,,---,0.03,VWS V14.01,2013-03-27 01:40:00,
2013-03-26 19:45:00,33.2,19.6,30.21,SSW,210,0.0,0.0,57,0.00,,---,0.03,VWS V14.01,2013-03-27 01:45:00,
2013-03-26 19:50:00,32.9,19.4,30.20,SSW,210,0.0,1.0,57,0.00,,---,0.03,VWS V14.01,2013-03-27 01:50:00,
2013-03-26 19:55:00,32.6,19.1,30.20,SSW,210,0.0,0.0,57,0.00,,---,0.03,VWS V14.01,2013-03-27 01:55:00,
2013-03-26 20:00:00,32.4,18.0,30.21,SSW,210,0.0,0.0,55,0.00,,---,0.03,VWS V14.01,2013-03-27 02:00:00,
2013-03-26 20:05:00,32.3,17.5,30.21,WSW,251,8.0,8.0,54,0.00,,---,0.03,VWS V14.01,2013-03-27 02:05:00,
2013-03-26 20:10:00,32.3,17.1,30.21,WSW,246,2.0,2.0,53,0.00,,---,0.03,VWS V14.01,2013-03-27 02:10:00,
2013-03-26 20:15:00,32.2,16.6,30.21,WSW,246,0.0,1.0,52,0.00,,---,0.03,VWS V14.01,2013-03-27 02:15:00,
2013-03-26 20:20:00,32.2,16.6,30.21,WSW,242,0.0,2.0,52,0.00,,---,0.03,VWS V14.01,2013-03-27 02:20:00,
2013-03-26 20:25:00,32.1,16.0,30.21,WSW,242,0.0,1.0,51,0.00,,---,0.03,VWS V14.01,2013-03-27 02:25:00,
2013-03-26 20:30:00,32.0,16.4,30.21,SW,232,3.0,5.0,52,0.00,,---,0.03,VWS V14.01,2013-03-27 02:30:00,
2013-03-26 20:35:00,32.0,16.8,30.21,SSW,198,0.0,0.0,53,0.00,,---,0.03,VWS V14.01,2013-03-27 02:35:00,
2013-03-26 20:40:00,32.0,16.8,30.21,SSE,159,2.0,4.0,53,0.00,,---,0.03,VWS V14.01,2013-03-27 02:40:00,
2013-03-26 20:45:00,32.0,16.4,30.21,SSE,159,1.0,4.0,52,0.00,,---,0.03,VWS V14.01,2013-03-27 02:45:00,
2013-03-26 20:50:00,32.0,17.2,30.22,SSE,159,0.0,0.0,54,0.00,,---,0.03,VWS V14.01,2013-03-27 02:50:00,
2013-03-26 20:55:00,31.8,16.6,30.22,SSE,159,0.0,3.0,53,0.00,,---,0.03,VWS V14.01,2013-03-27 02:55:00,
2013-03-26 21:00:00,31.6,16.9,30.22,SSE,159,4.0,4.0,54,0.00,,---,0.03,VWS V14.01,2013-03-27 03:00:00,
2013-03-26 21:05:00,31.2,17.3,30.22,North,355,6.0,9.0,56,0.00,,---,0.03,VWS V14.01,2013-03-27 03:05:00,
2013-03-26 21:10:00,30.8,17.8,30.22,North,350,4.0,6.0,58,0.00,,---,0.03,VWS V14.01,2013-03-27 03:10:00,
2013-03-26 21:15:00,30.5,17.1,30.22,NNW,340,2.0,6.0,57,0.00,,---,0.03,VWS V14.01,2013-03-27 03:15:00,
2013-03-26 21:20:00,30.5,17.5,30.22,NNW,340,1.0,5.0,58,0.00,,---,0.03,VWS V14.01,2013-03-27 03:20:00,
2013-03-26 21:25:00,30.3,17.3,30.22,NNW,340,0.0,0.0,58,0.00,,---,0.03,VWS V14.01,2013-03-27 03:25:00,
2013-03-26 21:30:00,30.0,17.0,30.22,NNW,340,0.0,0.0,58,0.00,,---,0.03,VWS V14.01,2013-03-27 03:30:00,
2013-03-26 21:35:00,29.9,16.9,30.22,NNW,340,0.0,0.0,58,0.00,,---,0.03,VWS V14.01,2013-03-27 03:35:00,
2013-03-26 21:40:00,29.7,17.1,30.22,NNW,340,2.0,4.0,59,0.00,,---,0.03,VWS V14.01,2013-03-27 03:40:00,
2013-03-26 21:45:00,29.8,18.4,30.22,NNW,340,0.0,0.0,62,0.00,,---,0.03,VWS V14.01,2013-03-27 03:45:00,
2013-03-26 21:50:00,29.8,17.6,30.22,NNW,340,0.0,0.0,60,0.00,,---,0.03,VWS V14.01,2013-03-27 03:50:00,
2013-03-26 21:55:00,29.9,17.3,30.22,NNW,340,0.0,0.0,59,0.00,,---,0.03,VWS V14.01,2013-03-27 03:55:00,
2013-03-26 22:00:00,29.9,18.1,30.22,NNW,340,0.0,0.0,61,0.00,,---,0.03,VWS V14.01,2013-03-27 04:00:00,
2013-03-26 22:01:00,29.9,18.5,30.22,NNW,340,0.0,0.0,62,0.00,,---,0.03,VWS V14.01,2013-03-27 04:01:00,
2013-03-26 22:07:00,29.9,18.1,30.22,NNW,340,0.0,0.0,61,0.00,,---,0.03,VWS V14.01,2013-03-27 04:07:00,
2013-03-26 22:12:00,29.9,18.5,30.22,NNW,340,0.0,0.0,62,0.00,,---,0.03,VWS V14.01,2013-03-27 04:12:00,
2013-03-26 22:17:00,29.8,18.0,30.22,NNW,340,0.0,0.0,61,0.00,,---,0.03,VWS V14.01,2013-03-27 04:17:00,
2013-03-26 22:22:00,29.7,18.3,30.22,NNW,340,0.0,2.0,62,0.00,,---,0.03,VWS V14.01,2013-03-27 04:22:00,
2013-03-26 22:27:00,29.7,18.3,30.22,NNW,336,6.0,7.0,62,0.00,,---,0.03,VWS V14.01,2013-03-27 04:27:00,
2013-03-26 22:32:00,29.8,18.4,30.21,NNW,344,2.0,5.0,62,0.00,,---,0.03,VWS V14.01,2013-03-27 04:32:00,
2013-03-26 22:37:00,29.6,18.6,30.21,North,355,0.0,2.0,63,0.00,,---,0.03,VWS V14.01,2013-03-27 04:37:00,
2013-03-26 22:42:00,29.2,18.9,30.21,NNE,21,2.0,4.0,65,0.00,,---,0.03,VWS V14.01,2013-03-27 04:42:00,
2013-03-26 22:47:00,29.0,19.1,30.21,North,5,5.0,5.0,66,0.00,,---,0.03,VWS V14.01,2013-03-27 04:47:00,
2013-03-26 22:52:00,28.9,19.0,30.21,North,355,4.0,5.0,66,0.00,,---,0.03,VWS V14.01,2013-03-27 04:52:00,
2013-03-26 22:57:00,28.9,19.0,30.20,North,355,1.0,2.0,66,0.00,,---,0.03,VWS V14.01,2013-03-27 04:57:00,
2013-03-26 23:02:00,29.0,19.1,30.20,North,5,7.0,10.0,66,0.00,,---,0.03,VWS V14.01,2013-03-27 05:02:00,
2013-03-26 23:07:00,28.8,18.9,30.20,NNW,345,4.0,5.0,66,0.00,,---,0.03,VWS V14.01,2013-03-27 05:07:00,
2013-03-26 23:12:00,28.8,18.5,30.20,North,350,4.0,6.0,65,0.00,,---,0.03,VWS V14.01,2013-03-27 05:12:00,
2013-03-26 23:17:00,28.7,19.1,30.20,North,351,2.0,2.0,67,0.00,,---,0.03,VWS V14.01,2013-03-27 05:17:00,
2013-03-26 23:22:00,28.5,19.0,30.20,North,355,4.0,6.0,67,0.00,,---,0.03,VWS V14.01,2013-03-27 05:22:00,
2013-03-26 23:27:00,28.4,18.5,30.20,North,5,2.0,5.0,66,0.00,,---,0.03,VWS V14.01,2013-03-27 05:27:00,
2013-03-26 23:32:00,28.3,18.4,30.20,North,5,2.0,2.0,66,0.00,,---,0.03,VWS V14.01,2013-03-27 05:32:00,
2013-03-26 23:37:00,28.2,18.0,30.20,North,5,0.0,0.0,65,0.00,,---,0.03,VWS V14.01,2013-03-27 05:37:00,
2013-03-26 23:42:00,28.2,18.0,30.20,North,5,0.0,0.0,65,0.00,,---,0.03,VWS V14.01,2013-03-27 05:42:00,
2013-03-26 23:47:00,28.3,18.1,30.20,North,5,0.0,1.0,65,0.00,,---,0.03,VWS V14.01,2013-03-27 05:47:00,
2013-03-26 23:52:00,28.4,18.1,30.19,North,5,0.0,0.0,65,0.00,,---,0.03,VWS V14.01,2013-03-27 05:52:00,
2013-03-26 23:58:00,28.3,18.1,30.19,North,5,0.0,0.0,65,0.00,,---,0.03,VWS V14.01,2013-03-27 05:58:00,